sensor_id;sensor_type;location;lat;lon;timestamp;P1;durP1;ratioP1;P2;durP2;ratioP2
67278;SDS011;54193;53.746;10.058;2022-09-21T00:02:38;7.23;;;2.90;;
67278;SDS011;54193;53.746;10.058;2022-09-21T00:05:23;6.65;;;3.03;;
67278;SDS011;54193;53.746;10.058;2022-09-21T00:08:11;6.97;;;3.22;;
67278;SDS011;54193;53.746;10.058;2022-09-21T00:10:58;6.80;;;3.15;;
67278;SDS011;54193;53.746;10.058;2022-09-21T00:13:45;6.18;;;3.05;;
67278;SDS011;54193;53.746;10.058;2022-09-21T00:16:31;8.97;;;3.00;;
67278;SDS011;54193;53.746;10.058;2022-09-21T00:19:17;6.47;;;2.97;;
67278;SDS011;54193;53.746;10.058;2022-09-21T00:22:02;7.90;;;3.25;;
67278;SDS011;54193;53.746;10.058;2022-09-21T00:24:48;6.78;;;3.03;;
67278;SDS011;54193;53.746;10.058;2022-09-21T00:27:34;6.70;;;3.22;;
67278;SDS011;54193;53.746;10.058;2022-09-21T00:30:20;7.23;;;2.70;;
67278;SDS011;54193;53.746;10.058;2022-09-21T00:33:05;5.45;;;2.40;;
67278;SDS011;54193;53.746;10.058;2022-09-21T00:35:51;5.85;;;2.38;;
67278;SDS011;54193;53.746;10.058;2022-09-21T00:38:37;5.25;;;2.53;;
67278;SDS011;54193;53.746;10.058;2022-09-21T00:41:23;5.93;;;2.28;;
67278;SDS011;54193;53.746;10.058;2022-09-21T00:47:10;5.95;;;2.70;;
67278;SDS011;54193;53.746;10.058;2022-09-21T00:49:58;7.55;;;3.00;;
67278;SDS011;54193;53.746;10.058;2022-09-21T00:52:48;8.90;;;3.10;;
67278;SDS011;54193;53.746;10.058;2022-09-21T00:55:39;7.63;;;2.80;;
67278;SDS011;54193;53.746;10.058;2022-09-21T00:58:29;6.40;;;2.60;;
67278;SDS011;54193;53.746;10.058;2022-09-21T01:01:18;7.97;;;2.50;;
67278;SDS011;54193;53.746;10.058;2022-09-21T01:04:04;8.43;;;3.03;;
67278;SDS011;54193;53.746;10.058;2022-09-21T01:06:51;7.63;;;3.30;;
67278;SDS011;54193;53.746;10.058;2022-09-21T01:09:37;8.15;;;3.20;;
67278;SDS011;54193;53.746;10.058;2022-09-21T01:15:28;6.82;;;3.40;;
67278;SDS011;54193;53.746;10.058;2022-09-21T01:22:04;7.45;;;3.75;;
67278;SDS011;54193;53.746;10.058;2022-09-21T01:31:35;8.55;;;3.55;;
67278;SDS011;54193;53.746;10.058;2022-09-21T01:34:33;7.43;;;3.40;;
67278;SDS011;54193;53.746;10.058;2022-09-21T01:37:21;8.02;;;3.25;;
67278;SDS011;54193;53.746;10.058;2022-09-21T01:40:11;8.18;;;3.20;;
67278;SDS011;54193;53.746;10.058;2022-09-21T01:43:03;8.83;;;3.10;;
67278;SDS011;54193;53.746;10.058;2022-09-21T01:45:51;7.43;;;3.00;;
67278;SDS011;54193;53.746;10.058;2022-09-21T01:48:41;6.88;;;2.60;;
67278;SDS011;54193;53.746;10.058;2022-09-21T01:51:30;7.18;;;2.67;;
67278;SDS011;54193;53.746;10.058;2022-09-21T01:54:19;6.70;;;2.75;;
67278;SDS011;54193;53.746;10.058;2022-09-21T01:57:22;7.93;;;2.60;;
67278;SDS011;54193;53.746;10.058;2022-09-21T02:00:16;7.28;;;2.92;;
67278;SDS011;54193;53.746;10.058;2022-09-21T02:03:03;6.50;;;2.92;;
67278;SDS011;54193;53.746;10.058;2022-09-21T02:05:54;5.25;;;2.53;;
67278;SDS011;54193;53.746;10.058;2022-09-21T02:08:41;5.45;;;2.50;;
67278;SDS011;54193;53.746;10.058;2022-09-21T02:11:27;6.47;;;2.70;;
67278;SDS011;54193;53.746;10.058;2022-09-21T02:14:15;6.75;;;2.55;;
67278;SDS011;54193;53.746;10.058;2022-09-21T02:20:18;5.75;;;2.40;;
67278;SDS011;54193;53.746;10.058;2022-09-21T02:23:13;5.82;;;2.60;;
67278;SDS011;54193;53.746;10.058;2022-09-21T02:26:11;5.73;;;2.50;;
67278;SDS011;54193;53.746;10.058;2022-09-21T02:29:06;5.35;;;2.40;;
67278;SDS011;54193;53.746;10.058;2022-09-21T02:32:08;5.57;;;2.50;;
67278;SDS011;54193;53.746;10.058;2022-09-21T02:44:32;7.22;;;2.72;;
67278;SDS011;54193;53.746;10.058;2022-09-21T02:47:45;8.65;;;3.15;;
67278;SDS011;54193;53.746;10.058;2022-09-21T02:50:39;8.35;;;3.65;;
67278;SDS011;54193;53.746;10.058;2022-09-21T02:53:30;5.93;;;3.08;;
67278;SDS011;54193;53.746;10.058;2022-09-21T02:56:20;8.83;;;4.23;;
67278;SDS011;54193;53.746;10.058;2022-09-21T02:59:07;9.48;;;4.80;;
67278;SDS011;54193;53.746;10.058;2022-09-21T03:01:52;10.95;;;5.10;;
67278;SDS011;54193;53.746;10.058;2022-09-21T03:04:40;10.95;;;4.90;;
67278;SDS011;54193;53.746;10.058;2022-09-21T03:07:28;9.95;;;5.07;;
67278;SDS011;54193;53.746;10.058;2022-09-21T03:10:14;9.93;;;5.20;;
67278;SDS011;54193;53.746;10.058;2022-09-21T03:13:00;12.23;;;4.80;;
67278;SDS011;54193;53.746;10.058;2022-09-21T03:15:45;8.27;;;4.20;;
67278;SDS011;54193;53.746;10.058;2022-09-21T03:18:31;10.57;;;4.75;;
67278;SDS011;54193;53.746;10.058;2022-09-21T03:21:17;9.32;;;4.43;;
67278;SDS011;54193;53.746;10.058;2022-09-21T03:24:03;12.43;;;5.53;;
67278;SDS011;54193;53.746;10.058;2022-09-21T03:26:48;9.73;;;4.60;;
67278;SDS011;54193;53.746;10.058;2022-09-21T03:29:34;10.10;;;4.68;;
67278;SDS011;54193;53.746;10.058;2022-09-21T03:32:20;10.50;;;4.50;;
67278;SDS011;54193;53.746;10.058;2022-09-21T03:35:05;8.35;;;4.18;;
67278;SDS011;54193;53.746;10.058;2022-09-21T03:37:52;11.90;;;4.50;;
67278;SDS011;54193;53.746;10.058;2022-09-21T03:40:39;9.77;;;4.80;;
67278;SDS011;54193;53.746;10.058;2022-09-21T03:43:25;10.07;;;4.30;;
67278;SDS011;54193;53.746;10.058;2022-09-21T03:46:10;8.60;;;4.00;;
67278;SDS011;54193;53.746;10.058;2022-09-21T03:48:56;8.38;;;4.40;;
67278;SDS011;54193;53.746;10.058;2022-09-21T03:51:42;9.47;;;4.10;;
67278;SDS011;54193;53.746;10.058;2022-09-21T03:54:28;10.93;;;4.53;;
67278;SDS011;54193;53.746;10.058;2022-09-21T03:57:13;9.98;;;4.70;;
67278;SDS011;54193;53.746;10.058;2022-09-21T03:59:59;9.23;;;4.40;;
67278;SDS011;54193;53.746;10.058;2022-09-21T04:02:47;8.40;;;4.22;;
67278;SDS011;54193;53.746;10.058;2022-09-21T04:05:33;9.83;;;5.03;;
67278;SDS011;54193;53.746;10.058;2022-09-21T04:08:19;11.20;;;5.10;;
67278;SDS011;54193;53.746;10.058;2022-09-21T04:11:11;10.90;;;4.47;;
67278;SDS011;54193;53.746;10.058;2022-09-21T04:14:01;11.50;;;4.95;;
67278;SDS011;54193;53.746;10.058;2022-09-21T04:16:46;9.00;;;4.35;;
67278;SDS011;54193;53.746;10.058;2022-09-21T04:19:32;11.10;;;4.93;;
67278;SDS011;54193;53.746;10.058;2022-09-21T04:22:17;9.20;;;4.30;;
67278;SDS011;54193;53.746;10.058;2022-09-21T04:25:04;9.00;;;4.20;;
67278;SDS011;54193;53.746;10.058;2022-09-21T04:27:50;9.95;;;4.40;;
67278;SDS011;54193;53.746;10.058;2022-09-21T04:30:36;8.85;;;4.40;;
67278;SDS011;54193;53.746;10.058;2022-09-21T04:33:22;10.10;;;4.50;;
67278;SDS011;54193;53.746;10.058;2022-09-21T04:36:08;8.93;;;4.10;;
67278;SDS011;54193;53.746;10.058;2022-09-21T04:38:53;7.97;;;4.45;;
67278;SDS011;54193;53.746;10.058;2022-09-21T04:41:39;9.27;;;4.28;;
67278;SDS011;54193;53.746;10.058;2022-09-21T04:44:26;9.27;;;4.18;;
67278;SDS011;54193;53.746;10.058;2022-09-21T04:47:12;10.80;;;4.37;;
67278;SDS011;54193;53.746;10.058;2022-09-21T04:49:58;8.07;;;4.15;;
67278;SDS011;54193;53.746;10.058;2022-09-21T04:52:44;7.95;;;4.03;;
67278;SDS011;54193;53.746;10.058;2022-09-21T04:55:30;9.82;;;5.03;;
67278;SDS011;54193;53.746;10.058;2022-09-21T04:58:16;12.32;;;5.25;;
67278;SDS011;54193;53.746;10.058;2022-09-21T05:01:01;9.77;;;4.73;;
67278;SDS011;54193;53.746;10.058;2022-09-21T05:03:48;9.23;;;4.90;;
67278;SDS011;54193;53.746;10.058;2022-09-21T05:06:34;10.57;;;4.90;;
67278;SDS011;54193;53.746;10.058;2022-09-21T05:09:19;10.82;;;4.95;;
67278;SDS011;54193;53.746;10.058;2022-09-21T05:12:23;9.30;;;5.18;;
67278;SDS011;54193;53.746;10.058;2022-09-21T05:15:09;9.47;;;4.70;;
67278;SDS011;54193;53.746;10.058;2022-09-21T05:17:55;11.88;;;5.03;;
67278;SDS011;54193;53.746;10.058;2022-09-21T05:20:41;11.32;;;4.70;;
67278;SDS011;54193;53.746;10.058;2022-09-21T05:23:27;8.50;;;4.53;;
67278;SDS011;54193;53.746;10.058;2022-09-21T05:26:14;11.48;;;5.15;;
67278;SDS011;54193;53.746;10.058;2022-09-21T05:28:59;11.23;;;5.07;;
67278;SDS011;54193;53.746;10.058;2022-09-21T05:31:47;12.57;;;5.95;;
67278;SDS011;54193;53.746;10.058;2022-09-21T05:34:50;10.15;;;4.97;;
67278;SDS011;54193;53.746;10.058;2022-09-21T05:37:49;12.98;;;5.28;;
67278;SDS011;54193;53.746;10.058;2022-09-21T05:40:43;12.40;;;5.05;;
67278;SDS011;54193;53.746;10.058;2022-09-21T05:43:29;12.67;;;6.73;;
67278;SDS011;54193;53.746;10.058;2022-09-21T05:46:21;12.85;;;5.50;;
67278;SDS011;54193;53.746;10.058;2022-09-21T05:49:19;11.82;;;4.90;;
67278;SDS011;54193;53.746;10.058;2022-09-21T05:52:16;11.93;;;5.30;;
67278;SDS011;54193;53.746;10.058;2022-09-21T06:01:32;13.18;;;5.78;;
67278;SDS011;54193;53.746;10.058;2022-09-21T06:04:20;16.83;;;6.72;;
67278;SDS011;54193;53.746;10.058;2022-09-21T06:07:06;13.95;;;5.70;;
67278;SDS011;54193;53.746;10.058;2022-09-21T06:09:52;14.77;;;5.97;;
67278;SDS011;54193;53.746;10.058;2022-09-21T06:12:38;15.30;;;6.40;;
67278;SDS011;54193;53.746;10.058;2022-09-21T06:15:24;13.88;;;6.30;;
67278;SDS011;54193;53.746;10.058;2022-09-21T06:18:09;14.75;;;6.40;;
67278;SDS011;54193;53.746;10.058;2022-09-21T06:20:55;16.55;;;6.47;;
67278;SDS011;54193;53.746;10.058;2022-09-21T06:23:41;13.55;;;6.60;;
67278;SDS011;54193;53.746;10.058;2022-09-21T06:26:26;13.80;;;5.93;;
67278;SDS011;54193;53.746;10.058;2022-09-21T06:29:13;15.55;;;7.03;;
67278;SDS011;54193;53.746;10.058;2022-09-21T06:32:00;15.68;;;7.55;;
67278;SDS011;54193;53.746;10.058;2022-09-21T06:34:46;15.02;;;7.57;;
67278;SDS011;54193;53.746;10.058;2022-09-21T06:37:34;16.98;;;7.85;;
67278;SDS011;54193;53.746;10.058;2022-09-21T06:40:20;23.13;;;8.20;;
67278;SDS011;54193;53.746;10.058;2022-09-21T06:43:05;19.08;;;8.60;;
67278;SDS011;54193;53.746;10.058;2022-09-21T06:45:54;22.90;;;10.10;;
67278;SDS011;54193;53.746;10.058;2022-09-21T06:48:44;21.35;;;9.55;;
67278;SDS011;54193;53.746;10.058;2022-09-21T06:51:30;22.40;;;9.40;;
67278;SDS011;54193;53.746;10.058;2022-09-21T06:54:15;22.47;;;10.10;;
67278;SDS011;54193;53.746;10.058;2022-09-21T06:57:02;21.27;;;9.68;;
67278;SDS011;54193;53.746;10.058;2022-09-21T06:59:48;22.85;;;9.90;;
67278;SDS011;54193;53.746;10.058;2022-09-21T07:02:34;23.15;;;10.82;;
67278;SDS011;54193;53.746;10.058;2022-09-21T07:05:20;20.42;;;9.70;;
67278;SDS011;54193;53.746;10.058;2022-09-21T07:08:05;21.50;;;10.50;;
67278;SDS011;54193;53.746;10.058;2022-09-21T07:10:53;22.55;;;10.43;;
67278;SDS011;54193;53.746;10.058;2022-09-21T07:13:42;23.27;;;10.40;;
67278;SDS011;54193;53.746;10.058;2022-09-21T07:16:30;20.23;;;9.90;;
67278;SDS011;54193;53.746;10.058;2022-09-21T07:19:15;18.73;;;8.10;;
67278;SDS011;54193;53.746;10.058;2022-09-21T07:22:01;13.17;;;6.23;;
67278;SDS011;54193;53.746;10.058;2022-09-21T07:24:47;14.68;;;6.68;;
67278;SDS011;54193;53.746;10.058;2022-09-21T07:27:33;13.05;;;6.13;;
67278;SDS011;54193;53.746;10.058;2022-09-21T07:30:19;12.73;;;5.95;;
67278;SDS011;54193;53.746;10.058;2022-09-21T07:33:04;12.23;;;6.00;;
67278;SDS011;54193;53.746;10.058;2022-09-21T07:35:51;11.27;;;5.50;;
67278;SDS011;54193;53.746;10.058;2022-09-21T07:38:39;11.82;;;5.47;;
67278;SDS011;54193;53.746;10.058;2022-09-21T07:41:26;10.90;;;5.18;;
67278;SDS011;54193;53.746;10.058;2022-09-21T07:44:12;12.80;;;5.20;;
67278;SDS011;54193;53.746;10.058;2022-09-21T07:46:57;12.52;;;4.88;;
67278;SDS011;54193;53.746;10.058;2022-09-21T07:49:43;8.63;;;4.83;;
67278;SDS011;54193;53.746;10.058;2022-09-21T07:52:30;10.38;;;3.95;;
67278;SDS011;54193;53.746;10.058;2022-09-21T07:55:16;7.47;;;3.95;;
67278;SDS011;54193;53.746;10.058;2022-09-21T07:58:02;7.63;;;3.50;;
67278;SDS011;54193;53.746;10.058;2022-09-21T08:01:06;8.82;;;3.30;;
67278;SDS011;54193;53.746;10.058;2022-09-21T08:03:52;8.67;;;4.03;;
67278;SDS011;54193;53.746;10.058;2022-09-21T08:06:39;7.38;;;3.55;;
67278;SDS011;54193;53.746;10.058;2022-09-21T08:09:26;7.60;;;3.45;;
67278;SDS011;54193;53.746;10.058;2022-09-21T08:12:11;6.57;;;3.00;;
67278;SDS011;54193;53.746;10.058;2022-09-21T08:14:57;7.00;;;2.90;;
67278;SDS011;54193;53.746;10.058;2022-09-21T08:17:43;4.60;;;2.50;;
67278;SDS011;54193;53.746;10.058;2022-09-21T08:20:28;4.57;;;2.65;;
67278;SDS011;54193;53.746;10.058;2022-09-21T08:23:14;5.63;;;2.60;;
67278;SDS011;54193;53.746;10.058;2022-09-21T08:26:03;4.80;;;2.10;;
67278;SDS011;54193;53.746;10.058;2022-09-21T08:28:52;5.07;;;2.08;;
67278;SDS011;54193;53.746;10.058;2022-09-21T08:31:39;4.43;;;2.30;;
67278;SDS011;54193;53.746;10.058;2022-09-21T08:34:24;4.72;;;2.22;;
67278;SDS011;54193;53.746;10.058;2022-09-21T08:37:10;4.43;;;2.15;;
67278;SDS011;54193;53.746;10.058;2022-09-21T08:39:56;4.32;;;2.33;;
67278;SDS011;54193;53.746;10.058;2022-09-21T08:42:45;4.15;;;1.90;;
67278;SDS011;54193;53.746;10.058;2022-09-21T08:45:45;4.30;;;2.07;;
67278;SDS011;54193;53.746;10.058;2022-09-21T08:48:33;3.97;;;1.40;;
67278;SDS011;54193;53.746;10.058;2022-09-21T08:51:27;3.78;;;1.42;;
67278;SDS011;54193;53.746;10.058;2022-09-21T08:54:33;3.00;;;1.30;;
67278;SDS011;54193;53.746;10.058;2022-09-21T08:57:27;2.88;;;1.50;;
67278;SDS011;54193;53.746;10.058;2022-09-21T09:00:15;3.97;;;1.70;;
67278;SDS011;54193;53.746;10.058;2022-09-21T09:03:20;3.63;;;1.40;;
67278;SDS011;54193;53.746;10.058;2022-09-21T09:18:36;2.95;;;1.30;;
67278;SDS011;54193;53.746;10.058;2022-09-21T09:21:39;2.45;;;1.13;;
67278;SDS011;54193;53.746;10.058;2022-09-21T09:24:37;2.80;;;1.30;;
67278;SDS011;54193;53.746;10.058;2022-09-21T09:27:26;2.50;;;1.20;;
67278;SDS011;54193;53.746;10.058;2022-09-21T09:30:21;2.43;;;1.00;;
67278;SDS011;54193;53.746;10.058;2022-09-21T09:36:08;2.65;;;1.10;;
67278;SDS011;54193;53.746;10.058;2022-09-21T09:38:56;2.47;;;1.20;;
67278;SDS011;54193;53.746;10.058;2022-09-21T09:41:48;2.92;;;1.10;;
67278;SDS011;54193;53.746;10.058;2022-09-21T09:51:01;2.90;;;1.40;;
67278;SDS011;54193;53.746;10.058;2022-09-21T09:53:47;3.72;;;1.38;;
67278;SDS011;54193;53.746;10.058;2022-09-21T09:56:34;3.45;;;1.25;;
67278;SDS011;54193;53.746;10.058;2022-09-21T09:59:25;2.93;;;1.20;;
67278;SDS011;54193;53.746;10.058;2022-09-21T10:05:17;3.10;;;1.40;;
67278;SDS011;54193;53.746;10.058;2022-09-21T10:11:23;2.80;;;1.35;;
67278;SDS011;54193;53.746;10.058;2022-09-21T10:14:21;3.00;;;1.50;;
67278;SDS011;54193;53.746;10.058;2022-09-21T10:17:11;3.05;;;1.30;;
67278;SDS011;54193;53.746;10.058;2022-09-21T10:20:02;2.65;;;1.20;;
67278;SDS011;54193;53.746;10.058;2022-09-21T10:22:54;2.53;;;1.17;;
67278;SDS011;54193;53.746;10.058;2022-09-21T10:25:40;3.17;;;1.10;;
67278;SDS011;54193;53.746;10.058;2022-09-21T10:28:26;3.27;;;1.00;;
67278;SDS011;54193;53.746;10.058;2022-09-21T10:31:17;3.25;;;1.10;;
67278;SDS011;54193;53.746;10.058;2022-09-21T10:34:14;2.65;;;0.90;;
67278;SDS011;54193;53.746;10.058;2022-09-21T10:37:01;2.15;;;0.80;;
67278;SDS011;54193;53.746;10.058;2022-09-21T10:40:40;2.33;;;0.88;;
67278;SDS011;54193;53.746;10.058;2022-09-21T10:43:22;2.67;;;1.00;;
67278;SDS011;54193;53.746;10.058;2022-09-21T10:46:12;2.97;;;0.80;;
67278;SDS011;54193;53.746;10.058;2022-09-21T10:48:58;2.97;;;0.90;;
67278;SDS011;54193;53.746;10.058;2022-09-21T10:51:44;2.13;;;0.73;;
67278;SDS011;54193;53.746;10.058;2022-09-21T10:54:33;2.83;;;0.70;;
67278;SDS011;54193;53.746;10.058;2022-09-21T10:57:19;2.77;;;0.70;;
67278;SDS011;54193;53.746;10.058;2022-09-21T11:06:17;1.80;;;0.68;;
67278;SDS011;54193;53.746;10.058;2022-09-21T11:09:10;2.10;;;0.70;;
67278;SDS011;54193;53.746;10.058;2022-09-21T11:12:06;2.20;;;0.77;;
67278;SDS011;54193;53.746;10.058;2022-09-21T11:15:11;2.25;;;0.60;;
67278;SDS011;54193;53.746;10.058;2022-09-21T11:18:19;2.35;;;0.82;;
67278;SDS011;54193;53.746;10.058;2022-09-21T11:21:29;2.42;;;0.80;;
67278;SDS011;54193;53.746;10.058;2022-09-21T11:27:41;2.20;;;0.80;;
67278;SDS011;54193;53.746;10.058;2022-09-21T11:30:49;2.17;;;0.70;;
67278;SDS011;54193;53.746;10.058;2022-09-21T11:34:15;2.33;;;0.80;;
67278;SDS011;54193;53.746;10.058;2022-09-21T11:43:23;3.00;;;0.80;;
67278;SDS011;54193;53.746;10.058;2022-09-21T11:49:40;2.15;;;0.70;;
67278;SDS011;54193;53.746;10.058;2022-09-21T12:11:52;2.65;;;1.00;;
67278;SDS011;54193;53.746;10.058;2022-09-21T12:14:41;2.10;;;0.80;;
67278;SDS011;54193;53.746;10.058;2022-09-21T12:18:04;2.20;;;0.80;;
67278;SDS011;54193;53.746;10.058;2022-09-21T12:21:18;2.00;;;0.90;;
67278;SDS011;54193;53.746;10.058;2022-09-21T12:24:12;2.67;;;0.80;;
67278;SDS011;54193;53.746;10.058;2022-09-21T12:30:15;3.20;;;1.00;;
67278;SDS011;54193;53.746;10.058;2022-09-21T12:36:27;2.00;;;0.70;;
67278;SDS011;54193;53.746;10.058;2022-09-21T12:45:26;3.37;;;0.70;;
67278;SDS011;54193;53.746;10.058;2022-09-21T12:53:57;2.20;;;0.98;;
67278;SDS011;54193;53.746;10.058;2022-09-21T12:56:54;2.38;;;0.70;;
67278;SDS011;54193;53.746;10.058;2022-09-21T12:59:59;2.47;;;0.80;;
67278;SDS011;54193;53.746;10.058;2022-09-21T13:02:54;2.00;;;0.60;;
67278;SDS011;54193;53.746;10.058;2022-09-21T13:09:09;2.17;;;0.75;;
67278;SDS011;54193;53.746;10.058;2022-09-21T13:11:59;2.60;;;0.80;;
67278;SDS011;54193;53.746;10.058;2022-09-21T13:14:58;4.73;;;0.90;;
67278;SDS011;54193;53.746;10.058;2022-09-21T13:17:55;1.92;;;0.80;;
67278;SDS011;54193;53.746;10.058;2022-09-21T13:20:46;2.70;;;0.93;;
67278;SDS011;54193;53.746;10.058;2022-09-21T13:26:27;2.58;;;0.77;;
67278;SDS011;54193;53.746;10.058;2022-09-21T13:29:29;2.00;;;0.80;;
67278;SDS011;54193;53.746;10.058;2022-09-21T13:38:55;2.30;;;0.77;;
67278;SDS011;54193;53.746;10.058;2022-09-21T13:41:48;3.00;;;0.80;;
67278;SDS011;54193;53.746;10.058;2022-09-21T13:44:40;2.17;;;0.70;;
67278;SDS011;54193;53.746;10.058;2022-09-21T13:47:34;2.63;;;0.80;;
67278;SDS011;54193;53.746;10.058;2022-09-21T13:50:35;2.10;;;0.80;;
67278;SDS011;54193;53.746;10.058;2022-09-21T13:53:28;2.60;;;0.70;;
67278;SDS011;54193;53.746;10.058;2022-09-21T13:56:18;2.20;;;0.82;;
67278;SDS011;54193;53.746;10.058;2022-09-21T13:59:12;2.87;;;0.80;;
67278;SDS011;54193;53.746;10.058;2022-09-21T14:02:17;2.13;;;0.85;;
67278;SDS011;54193;53.746;10.058;2022-09-21T14:11:06;1.98;;;0.70;;
67278;SDS011;54193;53.746;10.058;2022-09-21T14:16:56;3.20;;;0.85;;
67278;SDS011;54193;53.746;10.058;2022-09-21T14:22:32;2.28;;;0.82;;
67278;SDS011;54193;53.746;10.058;2022-09-21T14:25:23;2.20;;;0.82;;
67278;SDS011;54193;53.746;10.058;2022-09-21T14:28:11;2.33;;;0.73;;
67278;SDS011;54193;53.746;10.058;2022-09-21T14:30:59;2.90;;;0.80;;
67278;SDS011;54193;53.746;10.058;2022-09-21T14:33:48;3.85;;;0.90;;
67278;SDS011;54193;53.746;10.058;2022-09-21T14:36:43;2.17;;;0.80;;
67278;SDS011;54193;53.746;10.058;2022-09-21T14:39:33;2.72;;;0.90;;
67278;SDS011;54193;53.746;10.058;2022-09-21T14:42:22;3.50;;;0.90;;
67278;SDS011;54193;53.746;10.058;2022-09-21T14:45:13;3.17;;;1.05;;
67278;SDS011;54193;53.746;10.058;2022-09-21T14:57:40;2.63;;;0.90;;
67278;SDS011;54193;53.746;10.058;2022-09-21T15:00:48;2.83;;;0.90;;
67278;SDS011;54193;53.746;10.058;2022-09-21T15:06:32;2.40;;;1.13;;
67278;SDS011;54193;53.746;10.058;2022-09-21T15:13:07;2.03;;;0.80;;
67278;SDS011;54193;53.746;10.058;2022-09-21T15:16:07;2.63;;;1.00;;
67278;SDS011;54193;53.746;10.058;2022-09-21T15:22:20;2.50;;;0.90;;
67278;SDS011;54193;53.746;10.058;2022-09-21T15:25:10;2.13;;;0.80;;
67278;SDS011;54193;53.746;10.058;2022-09-21T15:27:57;2.67;;;1.00;;
67278;SDS011;54193;53.746;10.058;2022-09-21T15:30:44;2.90;;;0.90;;
67278;SDS011;54193;53.746;10.058;2022-09-21T15:33:30;1.83;;;0.70;;
67278;SDS011;54193;53.746;10.058;2022-09-21T15:36:22;2.67;;;0.80;;
67278;SDS011;54193;53.746;10.058;2022-09-21T15:45:17;2.60;;;0.77;;
67278;SDS011;54193;53.746;10.058;2022-09-21T15:48:05;2.78;;;0.80;;
67278;SDS011;54193;53.746;10.058;2022-09-21T15:50:58;2.97;;;0.70;;
67278;SDS011;54193;53.746;10.058;2022-09-21T15:53:50;4.50;;;1.33;;
67278;SDS011;54193;53.746;10.058;2022-09-21T15:56:42;3.60;;;0.87;;
67278;SDS011;54193;53.746;10.058;2022-09-21T15:59:28;3.03;;;1.30;;
67278;SDS011;54193;53.746;10.058;2022-09-21T16:02:16;2.90;;;1.00;;
67278;SDS011;54193;53.746;10.058;2022-09-21T16:05:06;2.42;;;1.00;;
67278;SDS011;54193;53.746;10.058;2022-09-21T16:08:05;2.25;;;0.90;;
67278;SDS011;54193;53.746;10.058;2022-09-21T16:14:13;2.38;;;0.85;;
67278;SDS011;54193;53.746;10.058;2022-09-21T16:17:20;2.45;;;1.00;;
67278;SDS011;54193;53.746;10.058;2022-09-21T16:20:13;3.03;;;0.95;;
67278;SDS011;54193;53.746;10.058;2022-09-21T16:23:03;2.28;;;0.98;;
67278;SDS011;54193;53.746;10.058;2022-09-21T16:26:00;2.50;;;0.97;;
67278;SDS011;54193;53.746;10.058;2022-09-21T16:28:46;3.60;;;1.20;;
67278;SDS011;54193;53.746;10.058;2022-09-21T16:31:33;3.05;;;0.85;;
67278;SDS011;54193;53.746;10.058;2022-09-21T16:34:22;3.47;;;1.00;;
67278;SDS011;54193;53.746;10.058;2022-09-21T16:40:09;3.10;;;1.20;;
67278;SDS011;54193;53.746;10.058;2022-09-21T16:42:54;2.72;;;0.90;;
67278;SDS011;54193;53.746;10.058;2022-09-21T16:45:40;3.67;;;1.15;;
67278;SDS011;54193;53.746;10.058;2022-09-21T16:48:26;2.50;;;1.00;;
67278;SDS011;54193;53.746;10.058;2022-09-21T16:51:13;2.20;;;0.90;;
67278;SDS011;54193;53.746;10.058;2022-09-21T16:54:00;2.63;;;1.00;;
67278;SDS011;54193;53.746;10.058;2022-09-21T16:56:47;2.67;;;0.90;;
67278;SDS011;54193;53.746;10.058;2022-09-21T16:59:32;2.35;;;0.98;;
67278;SDS011;54193;53.746;10.058;2022-09-21T17:02:20;2.33;;;0.98;;
67278;SDS011;54193;53.746;10.058;2022-09-21T17:05:06;3.70;;;0.93;;
67278;SDS011;54193;53.746;10.058;2022-09-21T17:07:55;2.80;;;0.90;;
67278;SDS011;54193;53.746;10.058;2022-09-21T17:10:43;2.63;;;1.20;;
67278;SDS011;54193;53.746;10.058;2022-09-21T17:13:29;4.50;;;1.10;;
67278;SDS011;54193;53.746;10.058;2022-09-21T17:16:16;2.50;;;1.00;;
67278;SDS011;54193;53.746;10.058;2022-09-21T17:19:03;2.20;;;0.90;;
67278;SDS011;54193;53.746;10.058;2022-09-21T17:21:49;3.63;;;1.07;;
67278;SDS011;54193;53.746;10.058;2022-09-21T17:24:35;2.58;;;1.10;;
67278;SDS011;54193;53.746;10.058;2022-09-21T17:27:22;2.72;;;0.98;;
67278;SDS011;54193;53.746;10.058;2022-09-21T17:30:11;2.63;;;1.02;;
67278;SDS011;54193;53.746;10.058;2022-09-21T17:32:58;3.85;;;1.80;;
67278;SDS011;54193;53.746;10.058;2022-09-21T17:35:44;4.93;;;2.30;;
67278;SDS011;54193;53.746;10.058;2022-09-21T17:38:29;3.03;;;1.20;;
67278;SDS011;54193;53.746;10.058;2022-09-21T17:41:19;3.50;;;1.48;;
67278;SDS011;54193;53.746;10.058;2022-09-21T17:44:15;3.42;;;1.80;;
67278;SDS011;54193;53.746;10.058;2022-09-21T17:47:23;3.20;;;1.50;;
67278;SDS011;54193;53.746;10.058;2022-09-21T17:53:08;5.90;;;1.75;;
67278;SDS011;54193;53.746;10.058;2022-09-21T17:59:31;3.78;;;1.27;;
67278;SDS011;54193;53.746;10.058;2022-09-21T18:02:20;2.75;;;1.15;;
67278;SDS011;54193;53.746;10.058;2022-09-21T18:05:17;4.13;;;1.20;;
67278;SDS011;54193;53.746;10.058;2022-09-21T18:08:07;2.80;;;1.20;;
67278;SDS011;54193;53.746;10.058;2022-09-21T18:11:39;6.85;;;3.28;;
67278;SDS011;54193;53.746;10.058;2022-09-21T18:26:30;6.05;;;3.67;;
67278;SDS011;54193;53.746;10.058;2022-09-21T18:29:28;7.53;;;3.53;;
67278;SDS011;54193;53.746;10.058;2022-09-21T18:38:48;5.13;;;2.42;;
67278;SDS011;54193;53.746;10.058;2022-09-21T18:45:22;6.55;;;4.05;;
67278;SDS011;54193;53.746;10.058;2022-09-21T18:48:31;9.05;;;4.53;;
67278;SDS011;54193;53.746;10.058;2022-09-21T18:54:28;6.60;;;3.70;;
67278;SDS011;54193;53.746;10.058;2022-09-21T18:57:14;10.60;;;4.57;;
67278;SDS011;54193;53.746;10.058;2022-09-21T19:00:00;10.25;;;5.50;;
67278;SDS011;54193;53.746;10.058;2022-09-21T19:02:46;11.45;;;6.00;;
67278;SDS011;54193;53.746;10.058;2022-09-21T19:05:31;12.27;;;6.37;;
67278;SDS011;54193;53.746;10.058;2022-09-21T19:11:06;8.00;;;5.10;;
67278;SDS011;54193;53.746;10.058;2022-09-21T19:14:05;8.73;;;4.38;;
67278;SDS011;54193;53.746;10.058;2022-09-21T19:26:48;10.25;;;5.03;;
67278;SDS011;54193;53.746;10.058;2022-09-21T19:29:59;8.30;;;3.03;;
67278;SDS011;54193;53.746;10.058;2022-09-21T19:32:49;5.25;;;2.50;;
67278;SDS011;54193;53.746;10.058;2022-09-21T19:35:42;7.13;;;2.33;;
67278;SDS011;54193;53.746;10.058;2022-09-21T19:38:28;5.28;;;2.33;;
67278;SDS011;54193;53.746;10.058;2022-09-21T19:47:42;4.20;;;1.80;;
67278;SDS011;54193;53.746;10.058;2022-09-21T19:50:36;3.60;;;1.77;;
67278;SDS011;54193;53.746;10.058;2022-09-21T19:53:25;4.95;;;2.00;;
67278;SDS011;54193;53.746;10.058;2022-09-21T19:56:30;5.20;;;2.38;;
67278;SDS011;54193;53.746;10.058;2022-09-21T19:59:34;3.90;;;2.20;;
67278;SDS011;54193;53.746;10.058;2022-09-21T20:02:29;5.88;;;2.70;;
67278;SDS011;54193;53.746;10.058;2022-09-21T20:05:21;6.93;;;3.20;;
67278;SDS011;54193;53.746;10.058;2022-09-21T20:08:41;5.18;;;2.75;;
67278;SDS011;54193;53.746;10.058;2022-09-21T20:11:38;6.13;;;3.03;;
67278;SDS011;54193;53.746;10.058;2022-09-21T20:18:36;6.00;;;2.83;;
67278;SDS011;54193;53.746;10.058;2022-09-21T20:20:59;6.97;;;3.00;;
67278;SDS011;54193;53.746;10.058;2022-09-21T20:23:44;6.40;;;3.28;;
67278;SDS011;54193;53.746;10.058;2022-09-21T20:26:30;6.90;;;3.35;;
67278;SDS011;54193;53.746;10.058;2022-09-21T20:29:17;6.85;;;3.33;;
67278;SDS011;54193;53.746;10.058;2022-09-21T20:32:04;7.45;;;3.35;;
67278;SDS011;54193;53.746;10.058;2022-09-21T20:34:51;9.00;;;3.87;;
67278;SDS011;54193;53.746;10.058;2022-09-21T20:37:37;7.10;;;3.92;;
67278;SDS011;54193;53.746;10.058;2022-09-21T20:40:23;7.63;;;4.30;;